sensor_id;sensor_type;location;lat;lon;timestamp;P1;durP1;ratioP1;P2;durP2;ratioP2
43363;SDS011;40636;52.424;-1.948;2022-12-18T00:01:05;6.78;;;4.70;;
43363;SDS011;40636;52.424;-1.948;2022-12-18T00:03:40;9.50;;;5.43;;
43363;SDS011;40636;52.424;-1.948;2022-12-18T00:06:07;8.73;;;5.25;;
43363;SDS011;40636;52.424;-1.948;2022-12-18T00:08:34;10.98;;;5.43;;
43363;SDS011;40636;52.424;-1.948;2022-12-18T00:11:05;7.25;;;4.20;;
43363;SDS011;40636;52.424;-1.948;2022-12-18T00:13:36;11.85;;;5.53;;
43363;SDS011;40636;52.424;-1.948;2022-12-18T00:16:04;6.97;;;5.20;;
43363;SDS011;40636;52.424;-1.948;2022-12-18T00:18:33;6.57;;;4.97;;
43363;SDS011;40636;52.424;-1.948;2022-12-18T00:21:00;7.03;;;4.93;;
43363;SDS011;40636;52.424;-1.948;2022-12-18T00:23:29;8.52;;;5.40;;
43363;SDS011;40636;52.424;-1.948;2022-12-18T00:26:04;9.10;;;5.60;;
43363;SDS011;40636;52.424;-1.948;2022-12-18T00:28:33;10.40;;;6.23;;
43363;SDS011;40636;52.424;-1.948;2022-12-18T00:31:09;10.02;;;5.43;;
43363;SDS011;40636;52.424;-1.948;2022-12-18T00:33:40;9.30;;;5.65;;
43363;SDS011;40636;52.424;-1.948;2022-12-18T00:36:15;9.55;;;5.45;;
43363;SDS011;40636;52.424;-1.948;2022-12-18T00:38:46;8.40;;;4.72;;
43363;SDS011;40636;52.424;-1.948;2022-12-18T00:41:14;10.05;;;5.25;;
43363;SDS011;40636;52.424;-1.948;2022-12-18T00:44:05;7.15;;;4.63;;
43363;SDS011;40636;52.424;-1.948;2022-12-18T00:46:34;9.40;;;4.88;;
43363;SDS011;40636;52.424;-1.948;2022-12-18T00:49:00;7.00;;;4.85;;
43363;SDS011;40636;52.424;-1.948;2022-12-18T00:51:27;7.90;;;5.28;;
43363;SDS011;40636;52.424;-1.948;2022-12-18T00:53:54;10.57;;;5.38;;
43363;SDS011;40636;52.424;-1.948;2022-12-18T00:56:20;9.35;;;5.63;;
43363;SDS011;40636;52.424;-1.948;2022-12-18T00:58:47;8.60;;;4.82;;
43363;SDS011;40636;52.424;-1.948;2022-12-18T01:01:14;10.77;;;5.38;;
43363;SDS011;40636;52.424;-1.948;2022-12-18T01:03:41;10.82;;;5.22;;
43363;SDS011;40636;52.424;-1.948;2022-12-18T01:06:09;7.88;;;5.25;;
43363;SDS011;40636;52.424;-1.948;2022-12-18T01:08:38;8.15;;;4.88;;
43363;SDS011;40636;52.424;-1.948;2022-12-18T01:11:09;12.95;;;5.72;;
43363;SDS011;40636;52.424;-1.948;2022-12-18T01:13:38;7.03;;;5.07;;
43363;SDS011;40636;52.424;-1.948;2022-12-18T01:16:06;9.13;;;6.53;;
43363;SDS011;40636;52.424;-1.948;2022-12-18T01:18:33;12.25;;;7.05;;
43363;SDS011;40636;52.424;-1.948;2022-12-18T01:21:00;10.13;;;5.70;;
43363;SDS011;40636;52.424;-1.948;2022-12-18T01:23:26;8.98;;;5.47;;
43363;SDS011;40636;52.424;-1.948;2022-12-18T01:25:53;9.57;;;6.72;;
43363;SDS011;40636;52.424;-1.948;2022-12-18T01:28:20;12.32;;;5.85;;
43363;SDS011;40636;52.424;-1.948;2022-12-18T01:30:46;11.80;;;6.45;;
43363;SDS011;40636;52.424;-1.948;2022-12-18T01:33:13;9.77;;;6.25;;
43363;SDS011;40636;52.424;-1.948;2022-12-18T01:35:40;9.68;;;6.85;;
43363;SDS011;40636;52.424;-1.948;2022-12-18T01:38:08;11.10;;;6.75;;
43363;SDS011;40636;52.424;-1.948;2022-12-18T01:40:35;12.55;;;6.00;;
43363;SDS011;40636;52.424;-1.948;2022-12-18T01:43:02;13.55;;;6.90;;
43363;SDS011;40636;52.424;-1.948;2022-12-18T01:45:29;11.20;;;6.70;;
43363;SDS011;40636;52.424;-1.948;2022-12-18T01:48:05;11.90;;;7.10;;
43363;SDS011;40636;52.424;-1.948;2022-12-18T01:55:47;14.20;;;7.28;;
43363;SDS011;40636;52.424;-1.948;2022-12-18T01:58:17;14.93;;;6.88;;
43363;SDS011;40636;52.424;-1.948;2022-12-18T02:00:45;8.35;;;6.45;;
43363;SDS011;40636;52.424;-1.948;2022-12-18T02:03:13;13.05;;;6.63;;
43363;SDS011;40636;52.424;-1.948;2022-12-18T02:14:12;11.20;;;6.38;;
43363;SDS011;40636;52.424;-1.948;2022-12-18T02:19:45;13.23;;;7.60;;
43363;SDS011;40636;52.424;-1.948;2022-12-18T02:25:17;11.65;;;7.20;;
43363;SDS011;40636;52.424;-1.948;2022-12-18T02:27:47;13.00;;;7.15;;
43363;SDS011;40636;52.424;-1.948;2022-12-18T02:30:17;12.82;;;6.88;;
43363;SDS011;40636;52.424;-1.948;2022-12-18T02:32:46;12.50;;;7.35;;
43363;SDS011;40636;52.424;-1.948;2022-12-18T02:35:22;12.52;;;6.65;;
43363;SDS011;40636;52.424;-1.948;2022-12-18T02:37:52;13.45;;;7.80;;
43363;SDS011;40636;52.424;-1.948;2022-12-18T02:40:20;12.23;;;7.20;;
43363;SDS011;40636;52.424;-1.948;2022-12-18T02:42:49;15.43;;;7.45;;
43363;SDS011;40636;52.424;-1.948;2022-12-18T02:45:16;10.15;;;7.25;;
43363;SDS011;40636;52.424;-1.948;2022-12-18T02:47:43;12.52;;;7.72;;
43363;SDS011;40636;52.424;-1.948;2022-12-18T02:50:26;14.55;;;8.05;;
43363;SDS011;40636;52.424;-1.948;2022-12-18T03:01:14;13.57;;;7.53;;
43363;SDS011;40636;52.424;-1.948;2022-12-18T03:03:47;15.88;;;8.10;;
43363;SDS011;40636;52.424;-1.948;2022-12-18T03:08:53;15.88;;;7.90;;
43363;SDS011;40636;52.424;-1.948;2022-12-18T03:11:24;17.17;;;9.10;;
43363;SDS011;40636;52.424;-1.948;2022-12-18T03:14:12;18.30;;;8.13;;
43363;SDS011;40636;52.424;-1.948;2022-12-18T03:16:41;19.92;;;10.43;;
43363;SDS011;40636;52.424;-1.948;2022-12-18T03:19:11;17.52;;;9.55;;
43363;SDS011;40636;52.424;-1.948;2022-12-18T03:21:45;20.38;;;8.60;;
43363;SDS011;40636;52.424;-1.948;2022-12-18T03:24:14;16.23;;;9.57;;
43363;SDS011;40636;52.424;-1.948;2022-12-18T03:26:44;16.30;;;8.52;;
43363;SDS011;40636;52.424;-1.948;2022-12-18T03:29:38;23.90;;;10.23;;
43363;SDS011;40636;52.424;-1.948;2022-12-18T03:32:12;17.27;;;8.90;;
43363;SDS011;40636;52.424;-1.948;2022-12-18T03:34:45;20.17;;;10.50;;
43363;SDS011;40636;52.424;-1.948;2022-12-18T03:37:16;16.60;;;9.00;;
43363;SDS011;40636;52.424;-1.948;2022-12-18T03:39:43;16.73;;;10.45;;
43363;SDS011;40636;52.424;-1.948;2022-12-18T03:47:49;17.83;;;9.85;;
43363;SDS011;40636;52.424;-1.948;2022-12-18T03:53:23;22.20;;;10.63;;
43363;SDS011;40636;52.424;-1.948;2022-12-18T03:56:17;20.83;;;10.43;;
43363;SDS011;40636;52.424;-1.948;2022-12-18T03:58:46;19.83;;;10.02;;
43363;SDS011;40636;52.424;-1.948;2022-12-18T04:01:15;23.95;;;10.27;;
43363;SDS011;40636;52.424;-1.948;2022-12-18T04:03:44;22.70;;;11.05;;
43363;SDS011;40636;52.424;-1.948;2022-12-18T04:06:14;22.90;;;12.18;;
43363;SDS011;40636;52.424;-1.948;2022-12-18T04:08:43;27.45;;;12.35;;
43363;SDS011;40636;52.424;-1.948;2022-12-18T04:11:10;29.55;;;13.88;;
43363;SDS011;40636;52.424;-1.948;2022-12-18T04:13:38;29.25;;;12.45;;
43363;SDS011;40636;52.424;-1.948;2022-12-18T04:16:06;25.65;;;13.68;;
43363;SDS011;40636;52.424;-1.948;2022-12-18T04:18:33;28.40;;;12.38;;
43363;SDS011;40636;52.424;-1.948;2022-12-18T04:21:00;26.42;;;12.18;;
43363;SDS011;40636;52.424;-1.948;2022-12-18T04:23:27;28.60;;;13.90;;
43363;SDS011;40636;52.424;-1.948;2022-12-18T04:25:54;32.15;;;12.90;;
43363;SDS011;40636;52.424;-1.948;2022-12-18T04:28:21;33.45;;;14.10;;
43363;SDS011;40636;52.424;-1.948;2022-12-18T04:30:48;23.42;;;13.13;;
43363;SDS011;40636;52.424;-1.948;2022-12-18T04:33:15;27.67;;;12.20;;
43363;SDS011;40636;52.424;-1.948;2022-12-18T04:35:44;22.38;;;12.10;;
43363;SDS011;40636;52.424;-1.948;2022-12-18T04:38:11;29.75;;;13.30;;
43363;SDS011;40636;52.424;-1.948;2022-12-18T04:40:37;29.02;;;12.38;;
43363;SDS011;40636;52.424;-1.948;2022-12-18T04:43:06;21.73;;;12.20;;
43363;SDS011;40636;52.424;-1.948;2022-12-18T04:45:33;26.13;;;12.98;;
43363;SDS011;40636;52.424;-1.948;2022-12-18T04:48:00;32.58;;;12.63;;
43363;SDS011;40636;52.424;-1.948;2022-12-18T04:50:28;22.75;;;10.82;;
43363;SDS011;40636;52.424;-1.948;2022-12-18T04:52:55;23.95;;;12.80;;
43363;SDS011;40636;52.424;-1.948;2022-12-18T04:55:21;24.25;;;12.32;;
43363;SDS011;40636;52.424;-1.948;2022-12-18T04:57:51;26.80;;;12.45;;
43363;SDS011;40636;52.424;-1.948;2022-12-18T05:00:18;24.38;;;12.02;;
43363;SDS011;40636;52.424;-1.948;2022-12-18T05:02:44;26.48;;;13.00;;
43363;SDS011;40636;52.424;-1.948;2022-12-18T05:05:11;31.08;;;13.02;;
43363;SDS011;40636;52.424;-1.948;2022-12-18T05:07:38;29.23;;;12.23;;
43363;SDS011;40636;52.424;-1.948;2022-12-18T05:10:06;27.63;;;12.27;;
43363;SDS011;40636;52.424;-1.948;2022-12-18T05:12:35;31.08;;;12.35;;
43363;SDS011;40636;52.424;-1.948;2022-12-18T05:15:22;27.85;;;12.20;;
43363;SDS011;40636;52.424;-1.948;2022-12-18T05:17:49;26.60;;;13.07;;
43363;SDS011;40636;52.424;-1.948;2022-12-18T05:20:15;31.77;;;13.20;;
43363;SDS011;40636;52.424;-1.948;2022-12-18T05:22:42;26.50;;;10.95;;
43363;SDS011;40636;52.424;-1.948;2022-12-18T05:25:09;29.90;;;13.93;;
43363;SDS011;40636;52.424;-1.948;2022-12-18T05:27:36;29.17;;;13.13;;
43363;SDS011;40636;52.424;-1.948;2022-12-18T05:30:02;27.50;;;13.05;;
43363;SDS011;40636;52.424;-1.948;2022-12-18T05:32:29;27.15;;;12.63;;
43363;SDS011;40636;52.424;-1.948;2022-12-18T05:34:56;29.90;;;14.38;;
43363;SDS011;40636;52.424;-1.948;2022-12-18T05:37:23;32.85;;;14.50;;
43363;SDS011;40636;52.424;-1.948;2022-12-18T05:39:50;28.67;;;13.70;;
43363;SDS011;40636;52.424;-1.948;2022-12-18T05:42:16;27.05;;;12.82;;
43363;SDS011;40636;52.424;-1.948;2022-12-18T05:44:43;27.55;;;13.40;;
43363;SDS011;40636;52.424;-1.948;2022-12-18T05:47:10;27.75;;;12.55;;
43363;SDS011;40636;52.424;-1.948;2022-12-18T05:49:37;30.42;;;12.18;;
43363;SDS011;40636;52.424;-1.948;2022-12-18T05:52:03;32.67;;;13.70;;
43363;SDS011;40636;52.424;-1.948;2022-12-18T05:54:30;27.15;;;13.15;;
43363;SDS011;40636;52.424;-1.948;2022-12-18T05:56:57;23.83;;;11.75;;
43363;SDS011;40636;52.424;-1.948;2022-12-18T05:59:24;29.05;;;12.18;;
43363;SDS011;40636;52.424;-1.948;2022-12-18T06:01:51;33.25;;;13.75;;
43363;SDS011;40636;52.424;-1.948;2022-12-18T06:04:17;27.27;;;14.15;;
43363;SDS011;40636;52.424;-1.948;2022-12-18T06:06:44;25.70;;;12.93;;
43363;SDS011;40636;52.424;-1.948;2022-12-18T06:09:11;28.92;;;14.95;;
43363;SDS011;40636;52.424;-1.948;2022-12-18T06:11:38;30.58;;;13.30;;
43363;SDS011;40636;52.424;-1.948;2022-12-18T06:14:05;30.90;;;15.25;;
43363;SDS011;40636;52.424;-1.948;2022-12-18T06:16:32;28.02;;;13.00;;
43363;SDS011;40636;52.424;-1.948;2022-12-18T06:19:00;38.17;;;14.15;;
43363;SDS011;40636;52.424;-1.948;2022-12-18T06:21:27;35.60;;;14.75;;
43363;SDS011;40636;52.424;-1.948;2022-12-18T06:23:55;36.75;;;16.83;;
43363;SDS011;40636;52.424;-1.948;2022-12-18T06:26:22;31.00;;;15.30;;
43363;SDS011;40636;52.424;-1.948;2022-12-18T06:28:53;28.98;;;13.52;;
43363;SDS011;40636;52.424;-1.948;2022-12-18T06:31:20;37.58;;;12.82;;
43363;SDS011;40636;52.424;-1.948;2022-12-18T06:33:47;28.90;;;13.73;;
43363;SDS011;40636;52.424;-1.948;2022-12-18T06:36:13;23.63;;;12.30;;
43363;SDS011;40636;52.424;-1.948;2022-12-18T06:38:41;30.70;;;13.68;;
43363;SDS011;40636;52.424;-1.948;2022-12-18T06:41:14;35.08;;;14.10;;
43363;SDS011;40636;52.424;-1.948;2022-12-18T06:43:42;28.52;;;12.32;;
43363;SDS011;40636;52.424;-1.948;2022-12-18T06:46:10;37.67;;;13.48;;
43363;SDS011;40636;52.424;-1.948;2022-12-18T06:48:37;28.83;;;13.70;;
43363;SDS011;40636;52.424;-1.948;2022-12-18T06:51:04;31.45;;;13.65;;
43363;SDS011;40636;52.424;-1.948;2022-12-18T06:53:31;29.73;;;12.75;;
43363;SDS011;40636;52.424;-1.948;2022-12-18T06:56:02;27.55;;;12.52;;
43363;SDS011;40636;52.424;-1.948;2022-12-18T07:01:03;28.73;;;15.15;;
43363;SDS011;40636;52.424;-1.948;2022-12-18T07:03:31;24.73;;;12.77;;
43363;SDS011;40636;52.424;-1.948;2022-12-18T07:05:58;25.73;;;12.63;;
43363;SDS011;40636;52.424;-1.948;2022-12-18T07:08:25;28.73;;;12.88;;
43363;SDS011;40636;52.424;-1.948;2022-12-18T07:10:52;23.48;;;12.82;;
43363;SDS011;40636;52.424;-1.948;2022-12-18T07:13:21;27.33;;;12.93;;
43363;SDS011;40636;52.424;-1.948;2022-12-18T07:15:49;27.25;;;12.68;;
43363;SDS011;40636;52.424;-1.948;2022-12-18T07:18:15;28.92;;;12.88;;
43363;SDS011;40636;52.424;-1.948;2022-12-18T07:20:42;25.05;;;12.20;;
43363;SDS011;40636;52.424;-1.948;2022-12-18T07:23:09;31.45;;;12.25;;
43363;SDS011;40636;52.424;-1.948;2022-12-18T07:25:36;25.60;;;13.00;;
43363;SDS011;40636;52.424;-1.948;2022-12-18T07:28:03;25.63;;;11.40;;
43363;SDS011;40636;52.424;-1.948;2022-12-18T07:30:30;22.35;;;11.27;;
43363;SDS011;40636;52.424;-1.948;2022-12-18T07:32:56;23.70;;;10.52;;
43363;SDS011;40636;52.424;-1.948;2022-12-18T07:35:23;27.48;;;12.40;;
43363;SDS011;40636;52.424;-1.948;2022-12-18T07:37:50;27.48;;;12.15;;
43363;SDS011;40636;52.424;-1.948;2022-12-18T07:40:17;25.58;;;11.07;;
43363;SDS011;40636;52.424;-1.948;2022-12-18T07:42:44;24.02;;;10.43;;
43363;SDS011;40636;52.424;-1.948;2022-12-18T07:45:11;24.27;;;12.25;;
43363;SDS011;40636;52.424;-1.948;2022-12-18T07:47:37;30.27;;;10.75;;
43363;SDS011;40636;52.424;-1.948;2022-12-18T07:50:04;25.98;;;9.25;;
43363;SDS011;40636;52.424;-1.948;2022-12-18T07:52:31;26.02;;;11.48;;
43363;SDS011;40636;52.424;-1.948;2022-12-18T07:54:59;26.17;;;10.82;;
43363;SDS011;40636;52.424;-1.948;2022-12-18T07:57:25;18.63;;;9.98;;
43363;SDS011;40636;52.424;-1.948;2022-12-18T08:00:12;23.30;;;10.88;;
43363;SDS011;40636;52.424;-1.948;2022-12-18T08:02:39;23.17;;;9.55;;
43363;SDS011;40636;52.424;-1.948;2022-12-18T08:05:07;25.00;;;10.98;;
43363;SDS011;40636;52.424;-1.948;2022-12-18T08:07:34;25.45;;;9.35;;
43363;SDS011;40636;52.424;-1.948;2022-12-18T08:10:01;25.05;;;10.27;;
43363;SDS011;40636;52.424;-1.948;2022-12-18T08:12:29;31.83;;;10.52;;
43363;SDS011;40636;52.424;-1.948;2022-12-18T08:14:55;26.92;;;10.25;;
43363;SDS011;40636;52.424;-1.948;2022-12-18T08:17:22;19.33;;;10.52;;
43363;SDS011;40636;52.424;-1.948;2022-12-18T08:19:49;19.10;;;9.68;;
43363;SDS011;40636;52.424;-1.948;2022-12-18T08:22:16;19.20;;;9.77;;
43363;SDS011;40636;52.424;-1.948;2022-12-18T08:24:42;17.23;;;8.80;;
43363;SDS011;40636;52.424;-1.948;2022-12-18T08:27:09;19.35;;;9.25;;
43363;SDS011;40636;52.424;-1.948;2022-12-18T08:29:55;26.83;;;10.68;;
43363;SDS011;40636;52.424;-1.948;2022-12-18T08:32:22;22.63;;;9.75;;
43363;SDS011;40636;52.424;-1.948;2022-12-18T08:34:49;14.68;;;7.07;;
43363;SDS011;40636;52.424;-1.948;2022-12-18T08:37:16;19.35;;;9.30;;
43363;SDS011;40636;52.424;-1.948;2022-12-18T08:39:42;16.08;;;7.38;;
43363;SDS011;40636;52.424;-1.948;2022-12-18T08:42:09;13.82;;;8.50;;
43363;SDS011;40636;52.424;-1.948;2022-12-18T08:44:54;17.67;;;8.45;;
43363;SDS011;40636;52.424;-1.948;2022-12-18T08:47:21;18.48;;;9.35;;
43363;SDS011;40636;52.424;-1.948;2022-12-18T08:49:48;20.33;;;8.95;;
43363;SDS011;40636;52.424;-1.948;2022-12-18T08:52:14;21.70;;;9.88;;
43363;SDS011;40636;52.424;-1.948;2022-12-18T08:54:41;18.88;;;8.93;;
43363;SDS011;40636;52.424;-1.948;2022-12-18T08:57:07;18.10;;;9.60;;
43363;SDS011;40636;52.424;-1.948;2022-12-18T08:59:34;15.20;;;8.05;;
43363;SDS011;40636;52.424;-1.948;2022-12-18T09:02:01;18.30;;;8.65;;
43363;SDS011;40636;52.424;-1.948;2022-12-18T09:04:28;20.00;;;10.13;;
43363;SDS011;40636;52.424;-1.948;2022-12-18T09:06:55;15.95;;;8.60;;
43363;SDS011;40636;52.424;-1.948;2022-12-18T09:09:22;19.40;;;8.80;;
43363;SDS011;40636;52.424;-1.948;2022-12-18T09:11:48;17.15;;;7.38;;
43363;SDS011;40636;52.424;-1.948;2022-12-18T09:14:15;20.00;;;8.25;;
43363;SDS011;40636;52.424;-1.948;2022-12-18T09:16:41;14.82;;;7.97;;
43363;SDS011;40636;52.424;-1.948;2022-12-18T09:19:09;18.60;;;7.95;;
43363;SDS011;40636;52.424;-1.948;2022-12-18T09:21:36;20.58;;;8.18;;
43363;SDS011;40636;52.424;-1.948;2022-12-18T09:24:03;21.02;;;9.13;;
43363;SDS011;40636;52.424;-1.948;2022-12-18T09:26:34;15.73;;;8.18;;
43363;SDS011;40636;52.424;-1.948;2022-12-18T09:29:01;16.98;;;7.65;;
43363;SDS011;40636;52.424;-1.948;2022-12-18T09:31:28;16.27;;;9.57;;
43363;SDS011;40636;52.424;-1.948;2022-12-18T09:33:55;17.13;;;8.75;;
43363;SDS011;40636;52.424;-1.948;2022-12-18T09:36:22;21.17;;;9.02;;
43363;SDS011;40636;52.424;-1.948;2022-12-18T09:38:49;16.90;;;7.97;;
43363;SDS011;40636;52.424;-1.948;2022-12-18T09:41:24;17.77;;;7.93;;
43363;SDS011;40636;52.424;-1.948;2022-12-18T09:46:41;16.30;;;8.15;;
43363;SDS011;40636;52.424;-1.948;2022-12-18T09:49:13;22.35;;;8.30;;
43363;SDS011;40636;52.424;-1.948;2022-12-18T09:51:45;19.38;;;8.43;;
43363;SDS011;40636;52.424;-1.948;2022-12-18T09:54:22;17.50;;;8.50;;
43363;SDS011;40636;52.424;-1.948;2022-12-18T09:56:54;15.48;;;8.73;;
43363;SDS011;40636;52.424;-1.948;2022-12-18T09:59:25;15.80;;;7.97;;
43363;SDS011;40636;52.424;-1.948;2022-12-18T10:01:57;16.98;;;7.03;;
43363;SDS011;40636;52.424;-1.948;2022-12-18T10:04:25;17.45;;;7.05;;
43363;SDS011;40636;52.424;-1.948;2022-12-18T10:09:37;18.10;;;8.38;;
43363;SDS011;40636;52.424;-1.948;2022-12-18T10:12:32;17.65;;;8.73;;
43363;SDS011;40636;52.424;-1.948;2022-12-18T10:15:15;13.60;;;8.27;;
43363;SDS011;40636;52.424;-1.948;2022-12-18T10:20:54;19.73;;;8.18;;
43363;SDS011;40636;52.424;-1.948;2022-12-18T10:26:10;18.42;;;8.40;;
43363;SDS011;40636;52.424;-1.948;2022-12-18T10:28:40;13.07;;;7.45;;
43363;SDS011;40636;52.424;-1.948;2022-12-18T10:31:18;14.35;;;8.55;;
43363;SDS011;40636;52.424;-1.948;2022-12-18T10:33:50;14.77;;;7.85;;
43363;SDS011;40636;52.424;-1.948;2022-12-18T10:36:22;15.02;;;9.13;;
43363;SDS011;40636;52.424;-1.948;2022-12-18T10:38:50;19.35;;;8.00;;
43363;SDS011;40636;52.424;-1.948;2022-12-18T10:43:46;15.07;;;7.45;;
43363;SDS011;40636;52.424;-1.948;2022-12-18T10:46:14;17.52;;;8.90;;
43363;SDS011;40636;52.424;-1.948;2022-12-18T10:51:28;14.68;;;7.75;;
43363;SDS011;40636;52.424;-1.948;2022-12-18T10:54:06;12.20;;;6.65;;
43363;SDS011;40636;52.424;-1.948;2022-12-18T10:56:44;21.20;;;8.40;;
43363;SDS011;40636;52.424;-1.948;2022-12-18T10:59:13;12.90;;;6.70;;
43363;SDS011;40636;52.424;-1.948;2022-12-18T11:01:59;16.88;;;8.82;;
43363;SDS011;40636;52.424;-1.948;2022-12-18T11:04:27;15.38;;;8.73;;
43363;SDS011;40636;52.424;-1.948;2022-12-18T11:06:57;19.02;;;8.25;;
43363;SDS011;40636;52.424;-1.948;2022-12-18T11:09:34;17.60;;;8.00;;
43363;SDS011;40636;52.424;-1.948;2022-12-18T11:12:14;16.10;;;7.53;;
43363;SDS011;40636;52.424;-1.948;2022-12-18T11:14:46;14.77;;;7.80;;
43363;SDS011;40636;52.424;-1.948;2022-12-18T11:17:22;18.02;;;8.63;;
43363;SDS011;40636;52.424;-1.948;2022-12-18T11:20:10;13.68;;;7.10;;
43363;SDS011;40636;52.424;-1.948;2022-12-18T11:22:53;16.75;;;7.95;;
43363;SDS011;40636;52.424;-1.948;2022-12-18T11:25:26;17.73;;;8.15;;
43363;SDS011;40636;52.424;-1.948;2022-12-18T11:28:00;18.17;;;9.90;;
43363;SDS011;40636;52.424;-1.948;2022-12-18T11:30:34;15.30;;;9.10;;
43363;SDS011;40636;52.424;-1.948;2022-12-18T11:40:45;18.15;;;8.32;;
43363;SDS011;40636;52.424;-1.948;2022-12-18T11:43:28;18.02;;;8.95;;
43363;SDS011;40636;52.424;-1.948;2022-12-18T11:46:10;18.27;;;9.25;;
43363;SDS011;40636;52.424;-1.948;2022-12-18T11:48:58;15.77;;;8.02;;
43363;SDS011;40636;52.424;-1.948;2022-12-18T11:51:43;18.70;;;8.93;;
43363;SDS011;40636;52.424;-1.948;2022-12-18T11:54:16;20.83;;;8.93;;
43363;SDS011;40636;52.424;-1.948;2022-12-18T11:56:49;16.92;;;7.88;;
43363;SDS011;40636;52.424;-1.948;2022-12-18T11:59:29;21.55;;;8.65;;
43363;SDS011;40636;52.424;-1.948;2022-12-18T12:10:52;16.70;;;9.70;;
43363;SDS011;40636;52.424;-1.948;2022-12-18T12:19:35;19.73;;;9.93;;
43363;SDS011;40636;52.424;-1.948;2022-12-18T12:22:32;17.52;;;8.93;;
43363;SDS011;40636;52.424;-1.948;2022-12-18T12:25:15;14.93;;;8.85;;
43363;SDS011;40636;52.424;-1.948;2022-12-18T12:30:40;19.23;;;9.32;;
43363;SDS011;40636;52.424;-1.948;2022-12-18T12:33:38;21.23;;;10.50;;
43363;SDS011;40636;52.424;-1.948;2022-12-18T12:38:55;19.58;;;8.85;;
43363;SDS011;40636;52.424;-1.948;2022-12-18T12:41:27;22.20;;;9.93;;
43363;SDS011;40636;52.424;-1.948;2022-12-18T12:44:22;20.15;;;8.95;;
43363;SDS011;40636;52.424;-1.948;2022-12-18T12:46:55;17.52;;;8.52;;
43363;SDS011;40636;52.424;-1.948;2022-12-18T12:49:26;13.98;;;8.63;;
43363;SDS011;40636;52.424;-1.948;2022-12-18T12:52:07;17.27;;;8.40;;
43363;SDS011;40636;52.424;-1.948;2022-12-18T12:54:38;16.95;;;9.05;;
43363;SDS011;40636;52.424;-1.948;2022-12-18T12:57:09;17.48;;;9.45;;
43363;SDS011;40636;52.424;-1.948;2022-12-18T13:08:10;17.23;;;8.75;;
43363;SDS011;40636;52.424;-1.948;2022-12-18T13:10:49;19.77;;;9.73;;
43363;SDS011;40636;52.424;-1.948;2022-12-18T13:13:51;19.13;;;9.02;;
43363;SDS011;40636;52.424;-1.948;2022-12-18T13:16:20;18.52;;;9.52;;
43363;SDS011;40636;52.424;-1.948;2022-12-18T13:18:55;18.80;;;9.63;;
43363;SDS011;40636;52.424;-1.948;2022-12-18T13:21:32;17.25;;;8.40;;
43363;SDS011;40636;52.424;-1.948;2022-12-18T13:24:20;22.50;;;10.18;;
43363;SDS011;40636;52.424;-1.948;2022-12-18T13:26:51;18.83;;;8.57;;
43363;SDS011;40636;52.424;-1.948;2022-12-18T13:32:22;21.23;;;10.63;;
43363;SDS011;40636;52.424;-1.948;2022-12-18T13:37:52;20.60;;;9.10;;
43363;SDS011;40636;52.424;-1.948;2022-12-18T13:45:47;19.25;;;11.35;;
43363;SDS011;40636;52.424;-1.948;2022-12-18T13:48:19;20.00;;;10.07;;
43363;SDS011;40636;52.424;-1.948;2022-12-18T13:50:52;18.45;;;9.25;;
43363;SDS011;40636;52.424;-1.948;2022-12-18T13:53:29;14.80;;;8.57;;
43363;SDS011;40636;52.424;-1.948;2022-12-18T13:55:59;19.75;;;8.20;;
43363;SDS011;40636;52.424;-1.948;2022-12-18T13:58:26;16.63;;;9.13;;
43363;SDS011;40636;52.424;-1.948;2022-12-18T14:00:53;11.18;;;8.23;;
43363;SDS011;40636;52.424;-1.948;2022-12-18T14:03:21;14.88;;;7.53;;
43363;SDS011;40636;52.424;-1.948;2022-12-18T14:05:55;15.25;;;7.70;;
43363;SDS011;40636;52.424;-1.948;2022-12-18T14:08:30;13.27;;;7.55;;
43363;SDS011;40636;52.424;-1.948;2022-12-18T14:11:01;15.00;;;7.93;;
43363;SDS011;40636;52.424;-1.948;2022-12-18T14:13:31;14.93;;;7.45;;
43363;SDS011;40636;52.424;-1.948;2022-12-18T14:16:01;17.80;;;7.68;;
43363;SDS011;40636;52.424;-1.948;2022-12-18T14:20:58;10.80;;;6.97;;
43363;SDS011;40636;52.424;-1.948;2022-12-18T14:23:33;10.55;;;5.55;;
43363;SDS011;40636;52.424;-1.948;2022-12-18T14:26:26;8.50;;;4.97;;
43363;SDS011;40636;52.424;-1.948;2022-12-18T14:28:56;8.55;;;6.05;;
43363;SDS011;40636;52.424;-1.948;2022-12-18T14:31:25;12.90;;;7.07;;
43363;SDS011;40636;52.424;-1.948;2022-12-18T14:33:53;12.48;;;6.40;;
43363;SDS011;40636;52.424;-1.948;2022-12-18T14:36:21;11.13;;;6.72;;
43363;SDS011;40636;52.424;-1.948;2022-12-18T14:38:52;11.13;;;6.85;;
43363;SDS011;40636;52.424;-1.948;2022-12-18T14:41:21;11.10;;;6.15;;
43363;SDS011;40636;52.424;-1.948;2022-12-18T14:43:51;14.90;;;6.20;;
43363;SDS011;40636;52.424;-1.948;2022-12-18T14:49:00;11.38;;;6.68;;
43363;SDS011;40636;52.424;-1.948;2022-12-18T14:51:30;8.20;;;4.72;;
43363;SDS011;40636;52.424;-1.948;2022-12-18T14:54:00;11.15;;;5.22;;
43363;SDS011;40636;52.424;-1.948;2022-12-18T14:56:36;9.40;;;5.43;;
43363;SDS011;40636;52.424;-1.948;2022-12-18T14:59:15;11.50;;;5.75;;
43363;SDS011;40636;52.424;-1.948;2022-12-18T15:01:57;13.45;;;6.20;;
43363;SDS011;40636;52.424;-1.948;2022-12-18T15:04:36;11.32;;;6.35;;
43363;SDS011;40636;52.424;-1.948;2022-12-18T15:07:22;9.02;;;5.15;;
43363;SDS011;40636;52.424;-1.948;2022-12-18T15:10:10;9.05;;;5.50;;
43363;SDS011;40636;52.424;-1.948;2022-12-18T15:12:45;10.35;;;5.25;;
43363;SDS011;40636;52.424;-1.948;2022-12-18T15:15:57;6.78;;;4.38;;
43363;SDS011;40636;52.424;-1.948;2022-12-18T15:20:40;6.72;;;4.43;;
43363;SDS011;40636;52.424;-1.948;2022-12-18T15:23:19;6.57;;;4.32;;
43363;SDS011;40636;52.424;-1.948;2022-12-18T15:25:58;9.10;;;5.55;;
43363;SDS011;40636;52.424;-1.948;2022-12-18T15:28:32;7.47;;;4.80;;
43363;SDS011;40636;52.424;-1.948;2022-12-18T15:36:11;9.00;;;5.20;;
43363;SDS011;40636;52.424;-1.948;2022-12-18T15:38:39;7.32;;;4.82;;
43363;SDS011;40636;52.424;-1.948;2022-12-18T15:41:17;7.38;;;4.30;;
43363;SDS011;40636;52.424;-1.948;2022-12-18T15:43:50;7.38;;;4.78;;
43363;SDS011;40636;52.424;-1.948;2022-12-18T15:46:20;8.10;;;4.07;;
43363;SDS011;40636;52.424;-1.948;2022-12-18T15:48:49;7.30;;;4.05;;
43363;SDS011;40636;52.424;-1.948;2022-12-18T15:51:31;8.63;;;4.28;;
43363;SDS011;40636;52.424;-1.948;2022-12-18T15:54:01;8.35;;;4.05;;
43363;SDS011;40636;52.424;-1.948;2022-12-18T15:56:30;6.38;;;3.75;;
43363;SDS011;40636;52.424;-1.948;2022-12-18T15:59:17;6.73;;;4.40;;
43363;SDS011;40636;52.424;-1.948;2022-12-18T16:01:47;5.20;;;3.20;;
43363;SDS011;40636;52.424;-1.948;2022-12-18T16:04:16;5.72;;;3.78;;
43363;SDS011;40636;52.424;-1.948;2022-12-18T16:06:47;4.90;;;3.45;;
43363;SDS011;40636;52.424;-1.948;2022-12-18T16:09:35;7.22;;;3.55;;
43363;SDS011;40636;52.424;-1.948;2022-12-18T16:12:02;5.35;;;2.78;;
43363;SDS011;40636;52.424;-1.948;2022-12-18T16:14:29;6.65;;;3.70;;
43363;SDS011;40636;52.424;-1.948;2022-12-18T16:16:58;4.07;;;3.28;;
43363;SDS011;40636;52.424;-1.948;2022-12-18T16:19:26;7.28;;;3.17;;
43363;SDS011;40636;52.424;-1.948;2022-12-18T16:21:54;4.22;;;3.40;;
43363;SDS011;40636;52.424;-1.948;2022-12-18T16:24:30;3.70;;;3.10;;
43363;SDS011;40636;52.424;-1.948;2022-12-18T16:26:58;4.70;;;3.65;;
43363;SDS011;40636;52.424;-1.948;2022-12-18T16:29:27;4.28;;;2.97;;
43363;SDS011;40636;52.424;-1.948;2022-12-18T16:31:56;4.25;;;2.90;;
43363;SDS011;40636;52.424;-1.948;2022-12-18T16:34:26;4.43;;;3.03;;
43363;SDS011;40636;52.424;-1.948;2022-12-18T16:36:59;3.85;;;2.83;;
43363;SDS011;40636;52.424;-1.948;2022-12-18T16:39:31;4.95;;;2.88;;
43363;SDS011;40636;52.424;-1.948;2022-12-18T16:42:01;3.95;;;3.00;;